createdAt,value
2022-12-11T00:00:15.620Z,18.08
2022-12-11T00:03:18.419Z,17.67
2022-12-11T00:06:21.144Z,17.65
2022-12-11T00:09:24.202Z,16.45
2022-12-11T00:12:27.643Z,15.23
2022-12-11T00:15:30.615Z,16.50
2022-12-11T00:18:33.483Z,15.55
2022-12-11T00:21:35.661Z,16.08
2022-12-11T00:24:37.757Z,15.30
2022-12-11T00:27:40.582Z,16.35
2022-12-11T00:30:43.251Z,15.73
2022-12-11T00:33:45.126Z,15.25
2022-12-11T00:36:47.417Z,15.82
2022-12-11T00:39:50.595Z,15.88
2022-12-11T00:42:53.658Z,14.48
2022-12-11T00:45:56.513Z,16.23
2022-12-11T00:48:59.183Z,16.08
2022-12-11T00:52:01.317Z,16.23
2022-12-11T00:55:04.380Z,16.45
2022-12-11T00:58:08.766Z,16.38
2022-12-11T01:01:12.880Z,16.25
2022-12-11T01:04:16.117Z,14.00
2022-12-11T01:07:19.080Z,17.02
2022-12-11T01:10:22.090Z,17.00
2022-12-11T01:13:25.219Z,16.55
2022-12-11T01:16:28.033Z,16.13
2022-12-11T01:19:30.967Z,16.70
2022-12-11T01:22:34.106Z,17.05
2022-12-11T01:25:37.216Z,17.70
2022-12-11T01:28:39.613Z,17.48
2022-12-11T01:31:41.771Z,14.45
2022-12-11T01:34:44.752Z,15.43
2022-12-11T01:37:47.288Z,16.27
2022-12-11T01:40:49.829Z,16.08
2022-12-11T01:43:53.046Z,17.45
2022-12-11T01:46:55.896Z,16.10
2022-12-11T01:49:58.560Z,14.82
2022-12-11T01:53:00.963Z,16.20
2022-12-11T01:56:03.905Z,15.50
2022-12-11T01:59:06.735Z,17.30
2022-12-11T02:02:09.385Z,16.75
2022-12-11T02:05:12.039Z,17.58
2022-12-11T02:08:14.960Z,17.38
2022-12-11T02:11:17.888Z,17.77
2022-12-11T02:14:20.416Z,18.08
2022-12-11T02:17:22.835Z,17.83
2022-12-11T02:20:25.756Z,17.52
2022-12-11T02:23:28.766Z,17.67
2022-12-11T02:26:31.201Z,15.85
2022-12-11T02:29:34.276Z,17.15
2022-12-11T02:32:36.995Z,17.67
2022-12-11T02:35:39.767Z,17.75
2022-12-11T02:38:42.181Z,17.00
2022-12-11T02:41:44.968Z,16.77
2022-12-11T02:44:47.173Z,17.50
2022-12-11T02:47:50.020Z,15.68
2022-12-11T02:50:53.281Z,14.60
2022-12-11T02:53:56.135Z,16.35
2022-12-11T02:56:58.774Z,16.45
2022-12-11T03:00:01.544Z,14.65
2022-12-11T03:03:03.987Z,17.15
2022-12-11T03:06:07.119Z,17.27
2022-12-11T03:09:10.827Z,16.17
2022-12-11T03:12:13.289Z,18.20
2022-12-11T03:15:15.489Z,15.23
2022-12-11T03:18:17.813Z,19.17
2022-12-11T03:21:21.193Z,17.58
2022-12-11T03:24:23.770Z,18.52
2022-12-11T03:27:25.968Z,18.30
2022-12-11T03:30:28.632Z,15.95
2022-12-11T03:33:32.034Z,16.90
2022-12-11T03:36:35.055Z,14.50
2022-12-11T03:39:38.693Z,17.27
2022-12-11T03:42:41.466Z,18.50
2022-12-11T03:45:44.483Z,16.60
2022-12-11T03:48:47.322Z,15.88
2022-12-11T03:51:50.200Z,16.20
2022-12-11T03:54:52.542Z,16.42
2022-12-11T03:57:54.750Z,15.98
2022-12-11T04:00:56.944Z,17.75
2022-12-11T04:03:59.865Z,15.93
2022-12-11T04:07:06.573Z,17.20
2022-12-11T04:10:09.198Z,15.90
2022-12-11T04:13:11.455Z,17.48
2022-12-11T04:16:14.155Z,18.17
2022-12-11T04:19:16.546Z,16.65
2022-12-11T04:22:19.170Z,18.05
2022-12-11T04:25:21.752Z,17.13
2022-12-11T04:28:24.937Z,19.10
2022-12-11T04:31:27.923Z,17.50
2022-12-11T04:34:30.202Z,18.00
2022-12-11T04:37:32.379Z,17.17
2022-12-11T04:40:35.014Z,19.20
2022-12-11T04:43:37.659Z,17.13
2022-12-11T04:46:40.574Z,15.57
2022-12-11T04:49:43.484Z,17.50
2022-12-11T04:52:46.042Z,16.02
2022-12-11T04:55:48.171Z,14.35
2022-12-11T04:58:50.370Z,16.17
2022-12-11T05:01:52.692Z,15.77
2022-12-11T05:04:55.566Z,13.07
2022-12-11T05:07:58.060Z,14.38
2022-12-11T05:11:00.936Z,13.90
2022-12-11T05:14:02.919Z,17.90
2022-12-11T05:17:05.876Z,16.70
2022-12-11T05:20:08.252Z,16.42
2022-12-11T05:23:11.332Z,16.92
2022-12-11T05:26:13.699Z,16.23
2022-12-11T05:29:16.657Z,17.15
2022-12-11T05:32:19.392Z,15.98
2022-12-11T05:35:22.564Z,14.90
2022-12-11T05:38:25.076Z,16.00
2022-12-11T05:41:27.966Z,14.68
2022-12-11T05:44:30.725Z,15.00
2022-12-11T05:47:32.885Z,14.63
2022-12-11T05:50:35.715Z,15.57
2022-12-11T05:53:42.913Z,13.63
2022-12-11T05:56:46.015Z,14.13
2022-12-11T05:59:48.808Z,13.52
2022-12-11T06:02:51.871Z,13.05
2022-12-11T06:05:55.292Z,12.05
2022-12-11T06:08:58.094Z,11.52
2022-12-11T06:12:01.112Z,13.85
2022-12-11T06:15:04.372Z,13.07
2022-12-11T06:18:07.777Z,12.55
2022-12-11T06:21:10.639Z,13.68
2022-12-11T06:24:12.809Z,12.60
2022-12-11T06:27:15.388Z,12.40
2022-12-11T06:30:18.307Z,14.30
2022-12-11T06:33:21.040Z,12.73
2022-12-11T06:36:23.956Z,12.98
2022-12-11T06:39:26.560Z,13.10
2022-12-11T06:42:29.438Z,13.18
2022-12-11T06:45:32.133Z,13.07
2022-12-11T06:48:35.314Z,14.10
2022-12-11T06:51:37.843Z,14.15
2022-12-11T06:54:40.077Z,13.07
2022-12-11T06:57:42.603Z,12.23
2022-12-11T07:00:45.838Z,12.80
2022-12-11T07:03:48.755Z,11.80
2022-12-11T07:06:51.582Z,11.32
2022-12-11T07:09:54.459Z,11.57
2022-12-11T07:12:57.300Z,11.68
2022-12-11T07:16:00.140Z,12.05
2022-12-11T07:19:03.130Z,11.00
2022-12-11T07:22:05.557Z,13.32
2022-12-11T07:25:08.683Z,11.82
2022-12-11T07:28:15.200Z,12.20
2022-12-11T07:31:19.938Z,11.80
2022-12-11T07:34:23.204Z,10.75
2022-12-11T07:37:26.135Z,12.10
2022-12-11T07:40:29.286Z,12.43
2022-12-11T07:43:32.135Z,12.73
2022-12-11T07:46:34.403Z,14.02
2022-12-11T07:49:37.051Z,12.55
2022-12-11T07:52:39.804Z,12.18
2022-12-11T07:55:43.075Z,11.35
2022-12-11T07:58:46.318Z,12.23
2022-12-11T08:05:08.797Z,11.20
2022-12-11T08:08:11.911Z,12.07
2022-12-11T08:11:14.316Z,11.30
2022-12-11T08:14:16.882Z,10.13
2022-12-11T08:17:23.361Z,10.80
2022-12-11T08:20:29.871Z,10.70
2022-12-11T08:23:32.552Z,10.32
2022-12-11T08:26:35.189Z,8.75
2022-12-11T08:29:38.294Z,10.32
2022-12-11T08:32:41.389Z,10.80
2022-12-11T08:35:44.563Z,8.68
2022-12-11T08:38:47.344Z,10.35
2022-12-11T08:41:49.797Z,10.65
2022-12-11T08:44:52.293Z,8.88
2022-12-11T08:47:56.212Z,10.00
2022-12-11T08:50:59.810Z,11.88
2022-12-11T08:54:03.553Z,9.27
2022-12-11T08:57:06.274Z,10.77
2022-12-11T09:00:09.590Z,9.40
2022-12-11T09:03:13.336Z,9.45
2022-12-11T09:06:16.085Z,7.57
2022-12-11T09:09:19.443Z,9.52
2022-12-11T09:12:21.642Z,8.90
2022-12-11T09:15:23.923Z,7.97
2022-12-11T09:18:26.453Z,10.27
2022-12-11T09:21:29.728Z,8.65
2022-12-11T09:24:33.048Z,9.90
2022-12-11T09:27:36.479Z,8.05
2022-12-11T09:30:39.198Z,8.07
2022-12-11T09:33:41.878Z,7.28
2022-12-11T09:36:44.808Z,6.85
2022-12-11T09:39:49.766Z,7.70
2022-12-11T09:42:52.791Z,7.63
2022-12-11T09:45:55.632Z,7.38
2022-12-11T09:48:58.457Z,8.32
2022-12-11T09:52:00.650Z,6.35
2022-12-11T09:55:03.585Z,8.13
2022-12-11T09:58:06.265Z,8.77
2022-12-11T10:01:08.951Z,7.78
2022-12-11T10:04:11.856Z,7.13
2022-12-11T10:07:14.842Z,6.28
2022-12-11T10:10:18.117Z,7.35
2022-12-11T10:13:20.918Z,6.88
2022-12-11T10:16:24.292Z,8.77
2022-12-11T10:19:26.766Z,6.53
2022-12-11T10:22:29.628Z,8.00
2022-12-11T10:25:33.391Z,7.55
2022-12-11T10:28:36.261Z,6.97
2022-12-11T10:31:39.149Z,6.25
2022-12-11T10:34:42.146Z,7.88
2022-12-11T10:37:46.035Z,7.28
2022-12-11T10:40:49.748Z,5.18
2022-12-11T10:43:52.319Z,5.05
2022-12-11T10:46:54.546Z,7.95
2022-12-11T10:49:58.487Z,6.15
2022-12-11T10:53:01.654Z,5.82
2022-12-11T10:56:04.513Z,5.88
2022-12-11T10:59:07.659Z,6.20
2022-12-11T11:02:10.443Z,5.30
2022-12-11T11:05:13.570Z,6.28
2022-12-11T11:08:17.279Z,7.60
2022-12-11T11:11:20.979Z,6.45
2022-12-11T11:14:24.474Z,6.07
2022-12-11T11:17:32.081Z,8.32
2022-12-11T11:20:37.972Z,8.43
2022-12-11T11:23:44.879Z,10.15
2022-12-11T11:27:12.934Z,9.50
2022-12-11T11:30:12.335Z,15.30
2022-12-11T11:33:14.745Z,18.08
2022-12-11T11:36:17.738Z,14.15
2022-12-11T11:39:20.112Z,13.40
2022-12-11T11:42:22.634Z,11.27
2022-12-11T11:45:25.190Z,15.68
2022-12-11T11:48:28.111Z,10.75
2022-12-11T11:51:30.593Z,13.32
2022-12-11T11:54:33.383Z,14.32
2022-12-11T11:57:35.562Z,10.73
2022-12-11T12:00:38.259Z,11.85
2022-12-11T12:03:40.992Z,9.60
2022-12-11T12:06:50.370Z,10.15
2022-12-11T12:09:54.561Z,9.48
2022-12-11T12:12:58.131Z,11.05
2022-12-11T12:16:01.001Z,10.65
2022-12-11T12:19:04.396Z,11.75
2022-12-11T12:22:08.557Z,12.88
2022-12-11T12:25:11.603Z,9.57
2022-12-11T12:28:14.951Z,9.27
2022-12-11T12:31:17.857Z,10.27
2022-12-11T12:34:20.659Z,10.40
2022-12-11T12:37:23.586Z,8.68
2022-12-11T12:40:26.784Z,8.30
2022-12-11T12:43:29.828Z,8.95
2022-12-11T12:46:33.237Z,8.73
2022-12-11T12:49:36.145Z,10.93
2022-12-11T12:52:39.121Z,9.98
2022-12-11T12:55:41.725Z,10.70
2022-12-11T12:58:44.324Z,8.93
2022-12-11T13:01:46.882Z,9.23
2022-12-11T13:04:56.857Z,9.20
2022-12-11T13:07:59.304Z,9.50
2022-12-11T13:11:02.285Z,8.80
2022-12-11T13:14:05.412Z,10.55
2022-12-11T13:17:08.363Z,8.40
2022-12-11T13:20:11.271Z,9.15
2022-12-11T13:23:14.101Z,10.15
2022-12-11T13:26:16.929Z,10.05
2022-12-11T13:29:19.375Z,8.40
2022-12-11T13:32:21.964Z,9.65
2022-12-11T13:35:24.854Z,8.73
2022-12-11T13:38:27.672Z,8.45
2022-12-11T13:41:31.076Z,9.48
2022-12-11T13:44:33.709Z,9.35
2022-12-11T13:47:36.320Z,10.13
2022-12-11T13:50:38.551Z,9.55
2022-12-11T13:53:41.132Z,9.70
2022-12-11T13:56:44.115Z,10.48
2022-12-11T13:59:46.316Z,9.10
2022-12-11T14:02:49.244Z,10.18
2022-12-11T14:05:52.423Z,9.88
2022-12-11T14:08:55.615Z,9.68
2022-12-11T14:11:58.393Z,10.80
2022-12-11T14:15:00.948Z,9.88
2022-12-11T14:18:03.813Z,8.65
2022-12-11T14:21:06.305Z,8.52
2022-12-11T14:24:09.109Z,8.02
2022-12-11T14:27:12.182Z,8.95
2022-12-11T14:30:15.229Z,10.63
2022-12-11T14:33:18.237Z,8.40
2022-12-11T14:36:22.019Z,9.98
2022-12-11T14:39:25.243Z,8.75
2022-12-11T14:42:28.766Z,9.57
2022-12-11T14:45:31.533Z,9.88
2022-12-11T14:48:34.566Z,8.85
2022-12-11T14:51:37.445Z,8.80
2022-12-11T14:54:40.421Z,9.32
2022-12-11T14:57:43.582Z,9.82
2022-12-11T15:00:46.550Z,9.35
2022-12-11T15:03:49.645Z,9.05
2022-12-11T15:06:53.113Z,8.65
2022-12-11T15:09:56.072Z,9.55
2022-12-11T15:12:58.914Z,8.43
2022-12-11T15:16:01.828Z,7.85
2022-12-11T15:19:04.286Z,7.95
2022-12-11T15:22:07.286Z,8.30
2022-12-11T15:25:10.547Z,6.63
2022-12-11T15:28:14.332Z,7.55
2022-12-11T15:31:17.784Z,7.72
2022-12-11T15:34:20.392Z,7.10
2022-12-11T15:37:23.122Z,8.13
2022-12-11T15:40:26.804Z,8.55
2022-12-11T15:43:29.259Z,9.45
2022-12-11T15:46:31.748Z,7.18
2022-12-11T15:49:33.981Z,8.30
2022-12-11T15:52:37.023Z,7.93
2022-12-11T15:55:40.247Z,8.00
2022-12-11T15:58:43.414Z,9.00
2022-12-11T16:01:46.474Z,8.30
2022-12-11T16:04:49.775Z,8.73
2022-12-11T16:07:52.707Z,8.27
2022-12-11T16:10:55.364Z,9.27
2022-12-11T16:13:58.199Z,8.63
2022-12-11T16:17:01.170Z,9.43
2022-12-11T16:20:03.400Z,8.93
2022-12-11T16:23:05.694Z,8.90
2022-12-11T16:26:08.676Z,9.43
2022-12-11T16:29:11.773Z,9.05
2022-12-11T16:32:14.164Z,8.80
2022-12-11T16:35:17.067Z,8.35
2022-12-11T16:38:19.866Z,7.47
2022-12-11T16:41:22.555Z,6.90
2022-12-11T16:44:25.459Z,7.63
2022-12-11T16:47:28.965Z,7.18
2022-12-11T16:50:31.660Z,7.50
2022-12-11T16:53:34.396Z,6.95
2022-12-11T16:56:37.343Z,7.18
2022-12-11T16:59:40.417Z,6.50
2022-12-11T17:02:44.082Z,7.15
2022-12-11T17:05:47.461Z,7.15
2022-12-11T17:08:50.490Z,7.40
2022-12-11T17:11:53.264Z,7.28
2022-12-11T17:14:55.443Z,7.47
2022-12-11T17:17:58.303Z,7.80
2022-12-11T17:21:01.110Z,6.43
2022-12-11T17:24:04.035Z,6.88
2022-12-11T17:27:07.202Z,7.05
2022-12-11T17:30:10.134Z,7.22
2022-12-11T17:33:12.869Z,6.80
2022-12-11T17:36:15.668Z,7.18
2022-12-11T17:39:17.870Z,8.10
2022-12-11T17:42:20.145Z,8.43
2022-12-11T17:45:23.157Z,8.02
2022-12-11T17:48:26.095Z,7.72
2022-12-11T17:51:28.754Z,8.45
2022-12-11T17:54:31.681Z,7.70
2022-12-11T17:57:34.239Z,7.75
2022-12-11T18:00:36.955Z,6.55
2022-12-11T18:03:40.250Z,7.20
2022-12-11T18:06:43.286Z,7.05
2022-12-11T18:09:46.451Z,7.10
2022-12-11T18:12:49.449Z,8.30
2022-12-11T18:15:52.249Z,6.10
2022-12-11T18:18:55.702Z,6.40
2022-12-11T18:21:58.853Z,7.60
2022-12-11T18:25:06.415Z,7.25
2022-12-11T18:28:12.495Z,6.22
2022-12-11T18:31:15.677Z,6.60
2022-12-11T18:34:18.491Z,6.90
2022-12-11T18:37:26.299Z,7.75
2022-12-11T18:40:30.658Z,6.30
2022-12-11T18:43:33.674Z,6.82
2022-12-11T18:46:36.978Z,8.48
2022-12-11T18:49:39.435Z,6.85
2022-12-11T18:52:42.268Z,7.35
2022-12-11T18:55:45.039Z,8.15
2022-12-11T18:58:47.994Z,8.05
2022-12-11T19:01:50.594Z,7.35
2022-12-11T19:04:52.753Z,8.00
2022-12-11T19:07:56.511Z,7.88
2022-12-11T19:11:00.354Z,7.30
2022-12-11T19:14:03.241Z,7.57
2022-12-11T19:17:05.626Z,6.43
2022-12-11T19:20:32.295Z,6.70
2022-12-11T19:23:30.210Z,6.40
2022-12-11T19:26:33.259Z,5.97
2022-12-11T19:29:36.536Z,6.75
2022-12-11T19:32:39.915Z,6.53
2022-12-11T19:35:42.981Z,5.80
2022-12-11T19:38:45.667Z,6.43
2022-12-11T19:41:48.289Z,6.20
2022-12-11T19:44:50.908Z,6.03
2022-12-11T19:47:53.523Z,6.47
2022-12-11T19:50:55.780Z,6.82
2022-12-11T19:53:58.554Z,6.95
2022-12-11T19:57:02.175Z,6.60
2022-12-11T20:00:05.053Z,7.55
2022-12-11T20:03:14.613Z,8.05
2022-12-11T20:06:18.015Z,6.25
2022-12-11T20:09:21.493Z,6.65
2022-12-11T20:12:24.640Z,6.78
2022-12-11T20:15:28.021Z,6.57
2022-12-11T20:18:31.011Z,7.53
2022-12-11T20:21:34.183Z,7.45
2022-12-11T20:24:37.742Z,7.38
2022-12-11T20:27:41.432Z,6.60
2022-12-11T20:30:44.668Z,6.40
2022-12-11T20:33:47.152Z,6.60
2022-12-11T20:36:49.464Z,6.85
2022-12-11T20:39:52.367Z,7.07
2022-12-11T20:42:54.592Z,5.80
2022-12-11T20:45:57.178Z,5.68
2022-12-11T20:49:00.088Z,5.78
2022-12-11T20:52:02.603Z,6.25
2022-12-11T20:55:05.565Z,6.55
2022-12-11T20:58:08.514Z,5.93
2022-12-11T21:01:11.104Z,6.05
2022-12-11T21:04:15.429Z,6.38
2022-12-11T21:07:17.939Z,5.85
2022-12-11T21:10:20.857Z,6.63
2022-12-11T21:13:22.967Z,6.65
2022-12-11T21:16:25.699Z,6.28
2022-12-11T21:19:29.199Z,6.60
2022-12-11T21:22:32.209Z,5.82
2022-12-11T21:25:35.431Z,6.38
2022-12-11T21:28:38.449Z,6.75
2022-12-11T21:31:41.255Z,6.70
2022-12-11T21:34:44.173Z,5.78
2022-12-11T21:37:46.761Z,6.40
2022-12-11T21:40:49.871Z,6.57
2022-12-11T21:44:56.535Z,5.93
2022-12-11T21:47:14.808Z,5.53
2022-12-11T21:50:18.182Z,5.22
2022-12-11T21:53:20.288Z,5.50
2022-12-11T21:56:22.402Z,5.57
2022-12-11T21:59:25.001Z,5.68
2022-12-11T22:02:27.645Z,5.43
2022-12-11T22:05:30.238Z,5.88
2022-12-11T22:08:32.794Z,5.38
2022-12-11T22:11:35.700Z,5.85
2022-12-11T22:14:38.573Z,6.07
2022-12-11T22:17:40.815Z,5.80
2022-12-11T22:20:43.381Z,5.60
2022-12-11T22:23:46.507Z,5.50
2022-12-11T22:26:49.773Z,5.20
2022-12-11T22:29:52.809Z,5.78
2022-12-11T22:32:54.940Z,6.40
2022-12-11T22:35:57.871Z,6.43
2022-12-11T22:39:00.994Z,6.32
2022-12-11T22:42:03.469Z,6.40
2022-12-11T22:45:05.983Z,7.25
2022-12-11T22:48:08.438Z,6.13
2022-12-11T22:51:10.632Z,6.07
2022-12-11T22:54:13.361Z,5.13
2022-12-11T22:57:15.500Z,5.30
2022-12-11T23:00:18.277Z,5.05
2022-12-11T23:03:21.492Z,5.15
2022-12-11T23:06:24.690Z,5.38
2022-12-11T23:09:27.935Z,5.35
2022-12-11T23:12:30.879Z,4.72
2022-12-11T23:15:33.343Z,5.97
2022-12-11T23:18:35.954Z,5.28
2022-12-11T23:21:38.469Z,4.93
2022-12-11T23:24:41.048Z,5.88
2022-12-11T23:27:44.165Z,4.97
2022-12-11T23:30:46.548Z,6.03
2022-12-11T23:33:49.020Z,5.80
2022-12-11T23:36:51.582Z,6.70
2022-12-11T23:39:54.287Z,6.78
2022-12-11T23:42:57.277Z,6.35
2022-12-11T23:46:00.085Z,6.75
2022-12-11T23:49:02.463Z,6.50
2022-12-11T23:52:05.470Z,6.15
2022-12-11T23:55:08.232Z,6.22
2022-12-11T23:58:10.923Z,6.18
